Terminal Aerodrome Forecast
Issued by NWS Brownsville, TX

Current Version | Previous Version | Text Only | Print | Product List | Glossary Off
Versions: 1 2 3 4 5 6 7 8 9 10 11 12 13 14 15 16

519
FTUS44 KBRO 221737
TAFMFE
TAF
KMFE 221737Z 2218/2318 15017G24KT P6SM SKC
     FM222200 14019G27KT P6SM FEW060
     FM230300 14013KT P6SM FEW018 SCT250
     FM231500 15017G25KT P6SM FEW040 SCT250=

USA.gov is the U.S. government's official web portal to all federal, state and local government web resources and services.